LFTWLFMV

Guest
Details From LFTW - Garons Navy
To LFMV - Caumont
Flight Number -
Tags generated
Created
Modified
Stats Distance 23 nm / 43 km
Max Altitude 0 ft / 0 m
Waypoints 3
Social Downloads 1
Likes 0
Share

Download

Looking for another format? Having issues loading an existing format? Contact us
Advertisement - Login to hide

Notes

Basic altitude profile: - Ascent Rate: 2500ft/min - Ascent Speed: 250kts - Cruise Altitude: 35000ft - Cruise Speed: 420kts - Descent Rate: 1500ft/min - Descent Speed: 250kts Options: - Use NATs: yes - Use PACOTS: yes - Use low airways: yes - Use high airways: yes

Route

LFTW CM LFMV

ID Type Via Altitude (ft/m) Position (lat/lon) Dist (leg/tot) Name
O LFTW APT - 0 / 0 43.75744 / 4.41639 - / 0 nm Garons Navy
CM NDB - 0 / 0 43.90828 / 4.90539 23 / 23 nm AVIGNON NDB
O LFMV APT - 0 / 0 43.90860 / 4.90180 0 / 23 nm Caumont

Altitude Profile

Advertisement - Login to hide

LFTW

Details ICAO LFTW (FNI)
Name Nimes Garons
Region France
Timezone Europe/Paris (UTC+2.0)
Stats Elevation 309 ft / 94 m (AMSL)
Location 43.757400° 4.416350°
Runways 1
Magnetic Variation 1.794° E

METAR

LFTW 240300Z AUTO 36002KT CAVOK 15/13 Q1019 NOSIG

Decode

TAF

TAF LFTW 240200Z 2403/2503 01004KT CAVOK

Decode

Departure Runways

ID Width Length Bearing (true/mag) Surface Threshold Overrun Markings Lighting
18 148 ft / 45 m 8,026 ft / 2,446 m 177.03° / 175.23° CONCRETE 0 ft / 0 m 292 ft / 89 m PREC-APP EDGE THRESHOLD CALVERT
36 148 ft / 45 m 8,026 ft / 2,446 m 357.03° / 355.24° CONCRETE 0 ft / 0 m 302 ft / 92 m PREC-APP EDGE THRESHOLD

LFMV

Details ICAO LFMV (AVN)
Name Avignon Caumont
Region France
Timezone Europe/Paris (UTC+2.0)
Stats Elevation 124 ft / 38 m (AMSL)
Location 43.908400° 4.902140°
Runways 3
Magnetic Variation 1.910° E

METAR

LFMV 240300Z AUTO 02003KT 8000 NSC 13/13 Q1019 NOSIG

Decode

TAF

TAF LFMV 240200Z 2403/2503 VRB02KT CAVOK

Decode

Destination Runways

ID Width Length Bearing (true/mag) Surface Threshold Overrun Markings Lighting
17 148 ft / 45 m 6,170 ft / 1,881 m 169.00° / 167.09° ASPHALT 663 ft / 202 m 0 ft / 0 m PREC-APP EDGE THRESHOLD
17L 66 ft / 20 m 936 ft / 285 m 168.89° / 166.98° GRASS 0 ft / 0 m 0 ft / 0 m NONE
17R 164 ft / 50 m 2,299 ft / 701 m 168.97° / 167.06° GRASS 0 ft / 0 m 0 ft / 0 m NONE
35 148 ft / 45 m 6,170 ft / 1,881 m 349.00° / 347.09° ASPHALT 1,020 ft / 311 m 0 ft / 0 m APP EDGE THRESHOLD
35L 164 ft / 50 m 2,299 ft / 701 m 348.97° / 347.06° GRASS 0 ft / 0 m 0 ft / 0 m NONE
35R 66 ft / 20 m 936 ft / 285 m 348.89° / 346.98° GRASS 0 ft / 0 m 0 ft / 0 m NONE

Approach Navaids

Runway Type Ident Frequency Range Bearing (true/mag) Slope Elevation
17 DME AN 110.50 MHz 27 nm / 50 km - - 124 ft / 38 m (AMSL)
17 LOC-LOC AN 110.50 MHz 18 nm / 33 km 167.00° / 165.09 ° - 124 ft / 38 m (AMSL)
35 GS AN 110.50 MHz 10 nm / 19 km 349.00° / 347.09 ° 3.00° 121 ft / 37 m (AMSL)

Popular Alternatives